sensor_id;sensor_type;location;lat;lon;timestamp;P1;durP1;ratioP1;P2;durP2;ratioP2
43809;SDS011;29440;48.208;11.162;2024-02-21T00:02:07;4.55;;;1.10;;
43809;SDS011;29440;48.208;11.162;2024-02-21T00:04:32;4.90;;;1.00;;
43809;SDS011;29440;48.208;11.162;2024-02-21T00:06:58;1.90;;;0.90;;
43809;SDS011;29440;48.208;11.162;2024-02-21T00:09:24;7.53;;;1.33;;
43809;SDS011;29440;48.208;11.162;2024-02-21T00:11:50;5.38;;;1.20;;
43809;SDS011;29440;48.208;11.162;2024-02-21T00:14:15;3.95;;;1.05;;
43809;SDS011;29440;48.208;11.162;2024-02-21T00:16:41;3.35;;;0.90;;
43809;SDS011;29440;48.208;11.162;2024-02-21T00:19:06;4.82;;;1.23;;
43809;SDS011;29440;48.208;11.162;2024-02-21T00:21:32;4.32;;;1.20;;
43809;SDS011;29440;48.208;11.162;2024-02-21T00:23:57;6.05;;;1.05;;
43809;SDS011;29440;48.208;11.162;2024-02-21T00:26:23;9.00;;;1.42;;
43809;SDS011;29440;48.208;11.162;2024-02-21T00:28:49;4.22;;;1.23;;
43809;SDS011;29440;48.208;11.162;2024-02-21T00:31:14;8.07;;;0.90;;
43809;SDS011;29440;48.208;11.162;2024-02-21T00:33:40;2.47;;;0.70;;
43809;SDS011;29440;48.208;11.162;2024-02-21T00:36:05;2.80;;;0.80;;
43809;SDS011;29440;48.208;11.162;2024-02-21T00:38:31;5.25;;;1.13;;
43809;SDS011;29440;48.208;11.162;2024-02-21T00:40:57;2.75;;;1.02;;
43809;SDS011;29440;48.208;11.162;2024-02-21T00:43:22;3.38;;;0.90;;
43809;SDS011;29440;48.208;11.162;2024-02-21T00:45:49;6.13;;;1.05;;
43809;SDS011;29440;48.208;11.162;2024-02-21T00:48:15;6.07;;;1.35;;
43809;SDS011;29440;48.208;11.162;2024-02-21T00:50:40;4.50;;;0.80;;
43809;SDS011;29440;48.208;11.162;2024-02-21T00:53:06;2.83;;;0.82;;
43809;SDS011;29440;48.208;11.162;2024-02-21T00:55:31;4.30;;;1.35;;
43809;SDS011;29440;48.208;11.162;2024-02-21T00:57:57;2.47;;;0.90;;
43809;SDS011;29440;48.208;11.162;2024-02-21T01:00:23;5.80;;;1.02;;
43809;SDS011;29440;48.208;11.162;2024-02-21T01:02:48;3.40;;;1.05;;
43809;SDS011;29440;48.208;11.162;2024-02-21T01:05:14;6.85;;;0.90;;
43809;SDS011;29440;48.208;11.162;2024-02-21T01:07:39;5.25;;;1.10;;
43809;SDS011;29440;48.208;11.162;2024-02-21T01:10:05;5.80;;;1.23;;
43809;SDS011;29440;48.208;11.162;2024-02-21T01:12:31;1.80;;;0.82;;
43809;SDS011;29440;48.208;11.162;2024-02-21T01:14:57;6.15;;;0.93;;
43809;SDS011;29440;48.208;11.162;2024-02-21T01:17:22;3.10;;;1.05;;
43809;SDS011;29440;48.208;11.162;2024-02-21T01:19:48;2.58;;;0.95;;
43809;SDS011;29440;48.208;11.162;2024-02-21T01:22:13;5.68;;;1.45;;
43809;SDS011;29440;48.208;11.162;2024-02-21T01:24:40;7.03;;;1.60;;
43809;SDS011;29440;48.208;11.162;2024-02-21T01:27:06;5.82;;;1.42;;
43809;SDS011;29440;48.208;11.162;2024-02-21T01:29:32;5.75;;;1.30;;
43809;SDS011;29440;48.208;11.162;2024-02-21T01:31:57;5.00;;;1.50;;
43809;SDS011;29440;48.208;11.162;2024-02-21T01:34:23;2.38;;;1.48;;
43809;SDS011;29440;48.208;11.162;2024-02-21T01:36:48;3.88;;;1.40;;
43809;SDS011;29440;48.208;11.162;2024-02-21T01:39:14;4.47;;;1.50;;
43809;SDS011;29440;48.208;11.162;2024-02-21T01:41:39;4.35;;;1.50;;
43809;SDS011;29440;48.208;11.162;2024-02-21T01:44:05;3.67;;;1.23;;
43809;SDS011;29440;48.208;11.162;2024-02-21T01:46:30;5.43;;;1.30;;
43809;SDS011;29440;48.208;11.162;2024-02-21T01:48:56;4.93;;;1.27;;
43809;SDS011;29440;48.208;11.162;2024-02-21T01:51:23;2.47;;;1.42;;
43809;SDS011;29440;48.208;11.162;2024-02-21T01:53:49;3.35;;;1.50;;
43809;SDS011;29440;48.208;11.162;2024-02-21T01:56:16;6.93;;;1.80;;
43809;SDS011;29440;48.208;11.162;2024-02-21T01:58:42;4.43;;;1.40;;
43809;SDS011;29440;48.208;11.162;2024-02-21T02:01:09;4.63;;;1.35;;
43809;SDS011;29440;48.208;11.162;2024-02-21T02:03:35;3.42;;;1.13;;
43809;SDS011;29440;48.208;11.162;2024-02-21T02:06:01;3.63;;;1.17;;
43809;SDS011;29440;48.208;11.162;2024-02-21T02:08:30;2.85;;;1.35;;
43809;SDS011;29440;48.208;11.162;2024-02-21T02:10:57;4.45;;;1.00;;
43809;SDS011;29440;48.208;11.162;2024-02-21T02:13:23;4.45;;;1.52;;
43809;SDS011;29440;48.208;11.162;2024-02-21T02:15:49;3.55;;;1.20;;
43809;SDS011;29440;48.208;11.162;2024-02-21T02:18:16;3.33;;;1.23;;
43809;SDS011;29440;48.208;11.162;2024-02-21T02:20:43;4.10;;;1.40;;
43809;SDS011;29440;48.208;11.162;2024-02-21T02:23:10;3.75;;;1.10;;
43809;SDS011;29440;48.208;11.162;2024-02-21T02:25:55;3.55;;;1.30;;
43809;SDS011;29440;48.208;11.162;2024-02-21T02:28:21;8.15;;;1.75;;
43809;SDS011;29440;48.208;11.162;2024-02-21T02:30:47;2.83;;;1.25;;
43809;SDS011;29440;48.208;11.162;2024-02-21T02:33:13;3.25;;;0.98;;
43809;SDS011;29440;48.208;11.162;2024-02-21T02:35:38;3.30;;;1.30;;
43809;SDS011;29440;48.208;11.162;2024-02-21T02:38:05;2.47;;;1.10;;
43809;SDS011;29440;48.208;11.162;2024-02-21T02:40:31;3.70;;;1.20;;
43809;SDS011;29440;48.208;11.162;2024-02-21T02:42:58;5.13;;;1.25;;
43809;SDS011;29440;48.208;11.162;2024-02-21T02:45:24;3.60;;;1.20;;
43809;SDS011;29440;48.208;11.162;2024-02-21T02:47:54;4.10;;;1.13;;
43809;SDS011;29440;48.208;11.162;2024-02-21T02:50:21;4.57;;;1.30;;
43809;SDS011;29440;48.208;11.162;2024-02-21T02:52:48;2.47;;;0.90;;
43809;SDS011;29440;48.208;11.162;2024-02-21T02:55:13;4.50;;;1.23;;
43809;SDS011;29440;48.208;11.162;2024-02-21T02:57:39;2.72;;;1.25;;
43809;SDS011;29440;48.208;11.162;2024-02-21T03:00:07;5.13;;;1.60;;
43809;SDS011;29440;48.208;11.162;2024-02-21T03:02:34;3.08;;;0.90;;
43809;SDS011;29440;48.208;11.162;2024-02-21T03:05:00;5.20;;;0.77;;
43809;SDS011;29440;48.208;11.162;2024-02-21T03:07:26;3.90;;;1.02;;
43809;SDS011;29440;48.208;11.162;2024-02-21T03:09:51;3.95;;;0.90;;
43809;SDS011;29440;48.208;11.162;2024-02-21T03:12:18;4.75;;;1.08;;
43809;SDS011;29440;48.208;11.162;2024-02-21T03:14:49;2.95;;;1.10;;
43809;SDS011;29440;48.208;11.162;2024-02-21T03:17:15;4.82;;;1.27;;
43809;SDS011;29440;48.208;11.162;2024-02-21T03:19:41;2.85;;;1.05;;
43809;SDS011;29440;48.208;11.162;2024-02-21T03:22:07;7.78;;;1.10;;
43809;SDS011;29440;48.208;11.162;2024-02-21T03:24:32;4.40;;;1.10;;
43809;SDS011;29440;48.208;11.162;2024-02-21T03:26:58;3.45;;;1.20;;
43809;SDS011;29440;48.208;11.162;2024-02-21T03:29:24;4.53;;;0.90;;
43809;SDS011;29440;48.208;11.162;2024-02-21T03:31:50;6.03;;;1.40;;
43809;SDS011;29440;48.208;11.162;2024-02-21T03:34:16;3.30;;;1.38;;
43809;SDS011;29440;48.208;11.162;2024-02-21T03:36:41;4.18;;;1.10;;
43809;SDS011;29440;48.208;11.162;2024-02-21T03:39:07;4.22;;;0.95;;
43809;SDS011;29440;48.208;11.162;2024-02-21T03:41:34;3.13;;;1.08;;
43809;SDS011;29440;48.208;11.162;2024-02-21T03:44:00;3.58;;;1.10;;
43809;SDS011;29440;48.208;11.162;2024-02-21T03:46:26;4.70;;;1.00;;
43809;SDS011;29440;48.208;11.162;2024-02-21T03:48:52;3.40;;;0.70;;
43809;SDS011;29440;48.208;11.162;2024-02-21T03:51:17;1.98;;;1.13;;
43809;SDS011;29440;48.208;11.162;2024-02-21T03:53:43;2.03;;;0.80;;
43809;SDS011;29440;48.208;11.162;2024-02-21T03:56:08;1.63;;;0.90;;
43809;SDS011;29440;48.208;11.162;2024-02-21T03:58:34;4.75;;;1.02;;
43809;SDS011;29440;48.208;11.162;2024-02-21T04:01:00;2.25;;;0.70;;
43809;SDS011;29440;48.208;11.162;2024-02-21T04:03:30;3.80;;;0.70;;
43809;SDS011;29440;48.208;11.162;2024-02-21T04:05:56;2.15;;;0.60;;
43809;SDS011;29440;48.208;11.162;2024-02-21T04:08:22;2.78;;;0.70;;
43809;SDS011;29440;48.208;11.162;2024-02-21T04:10:48;3.88;;;0.88;;
43809;SDS011;29440;48.208;11.162;2024-02-21T04:13:13;1.52;;;0.80;;
43809;SDS011;29440;48.208;11.162;2024-02-21T04:15:39;2.13;;;0.90;;
43809;SDS011;29440;48.208;11.162;2024-02-21T04:18:05;3.28;;;0.70;;
43809;SDS011;29440;48.208;11.162;2024-02-21T04:20:30;2.70;;;0.75;;
43809;SDS011;29440;48.208;11.162;2024-02-21T04:22:57;6.13;;;0.98;;
43809;SDS011;29440;48.208;11.162;2024-02-21T04:25:23;2.15;;;0.98;;
43809;SDS011;29440;48.208;11.162;2024-02-21T04:27:48;4.82;;;0.85;;
43809;SDS011;29440;48.208;11.162;2024-02-21T04:30:14;2.03;;;0.80;;
43809;SDS011;29440;48.208;11.162;2024-02-21T04:32:40;1.92;;;0.50;;
43809;SDS011;29440;48.208;11.162;2024-02-21T04:35:06;2.13;;;0.70;;
43809;SDS011;29440;48.208;11.162;2024-02-21T04:37:32;3.63;;;0.80;;
43809;SDS011;29440;48.208;11.162;2024-02-21T04:39:58;2.83;;;0.60;;
43809;SDS011;29440;48.208;11.162;2024-02-21T04:42:23;3.58;;;0.70;;
43809;SDS011;29440;48.208;11.162;2024-02-21T04:44:49;1.80;;;0.60;;
43809;SDS011;29440;48.208;11.162;2024-02-21T04:47:14;4.07;;;1.42;;
43809;SDS011;29440;48.208;11.162;2024-02-21T04:49:40;1.48;;;0.60;;
43809;SDS011;29440;48.208;11.162;2024-02-21T04:52:05;3.35;;;0.80;;
43809;SDS011;29440;48.208;11.162;2024-02-21T04:54:31;3.78;;;0.93;;
43809;SDS011;29440;48.208;11.162;2024-02-21T04:56:57;2.65;;;0.77;;
43809;SDS011;29440;48.208;11.162;2024-02-21T04:59:22;1.90;;;0.60;;
43809;SDS011;29440;48.208;11.162;2024-02-21T05:01:48;2.55;;;0.65;;
43809;SDS011;29440;48.208;11.162;2024-02-21T05:04:13;1.35;;;0.63;;
43809;SDS011;29440;48.208;11.162;2024-02-21T05:06:39;2.08;;;1.05;;
43809;SDS011;29440;48.208;11.162;2024-02-21T05:09:06;1.70;;;0.80;;
43809;SDS011;29440;48.208;11.162;2024-02-21T05:11:36;1.70;;;0.60;;
43809;SDS011;29440;48.208;11.162;2024-02-21T05:14:02;2.55;;;0.50;;
43809;SDS011;29440;48.208;11.162;2024-02-21T05:16:29;2.08;;;0.60;;
43809;SDS011;29440;48.208;11.162;2024-02-21T05:18:54;3.38;;;1.90;;
43809;SDS011;29440;48.208;11.162;2024-02-21T05:21:21;9.40;;;3.17;;
43809;SDS011;29440;48.208;11.162;2024-02-21T05:23:48;4.38;;;1.95;;
43809;SDS011;29440;48.208;11.162;2024-02-21T05:26:24;3.95;;;1.85;;
43809;SDS011;29440;48.208;11.162;2024-02-21T05:28:50;2.78;;;1.02;;
43809;SDS011;29440;48.208;11.162;2024-02-21T05:31:17;1.40;;;0.70;;
43809;SDS011;29440;48.208;11.162;2024-02-21T05:33:43;2.15;;;0.70;;
43809;SDS011;29440;48.208;11.162;2024-02-21T05:36:10;1.45;;;0.60;;
43809;SDS011;29440;48.208;11.162;2024-02-21T05:38:36;1.25;;;0.63;;
43809;SDS011;29440;48.208;11.162;2024-02-21T05:41:02;2.20;;;0.70;;
43809;SDS011;29440;48.208;11.162;2024-02-21T05:43:27;2.85;;;0.88;;
43809;SDS011;29440;48.208;11.162;2024-02-21T05:45:53;1.30;;;0.60;;
43809;SDS011;29440;48.208;11.162;2024-02-21T05:48:19;1.52;;;0.63;;
43809;SDS011;29440;48.208;11.162;2024-02-21T05:50:45;2.15;;;0.60;;
43809;SDS011;29440;48.208;11.162;2024-02-21T05:53:11;3.22;;;0.70;;
43809;SDS011;29440;48.208;11.162;2024-02-21T05:55:38;2.72;;;0.68;;
43809;SDS011;29440;48.208;11.162;2024-02-21T05:58:04;2.30;;;0.80;;
43809;SDS011;29440;48.208;11.162;2024-02-21T06:00:31;1.20;;;0.70;;
43809;SDS011;29440;48.208;11.162;2024-02-21T06:02:56;1.00;;;0.50;;
43809;SDS011;29440;48.208;11.162;2024-02-21T06:05:22;1.30;;;0.40;;
43809;SDS011;29440;48.208;11.162;2024-02-21T06:07:48;2.65;;;0.50;;
43809;SDS011;29440;48.208;11.162;2024-02-21T06:10:13;2.67;;;0.55;;
43809;SDS011;29440;48.208;11.162;2024-02-21T06:12:39;1.83;;;0.70;;
43809;SDS011;29440;48.208;11.162;2024-02-21T06:15:04;2.03;;;0.60;;
43809;SDS011;29440;48.208;11.162;2024-02-21T06:17:31;2.45;;;0.73;;
43809;SDS011;29440;48.208;11.162;2024-02-21T06:19:56;2.13;;;0.60;;
43809;SDS011;29440;48.208;11.162;2024-02-21T06:22:22;1.17;;;0.50;;
43809;SDS011;29440;48.208;11.162;2024-02-21T06:24:48;1.27;;;0.60;;
43809;SDS011;29440;48.208;11.162;2024-02-21T06:27:13;4.13;;;1.45;;
43809;SDS011;29440;48.208;11.162;2024-02-21T06:29:41;6.40;;;3.15;;
43809;SDS011;29440;48.208;11.162;2024-02-21T06:32:07;2.78;;;1.63;;
43809;SDS011;29440;48.208;11.162;2024-02-21T06:34:32;1.85;;;0.70;;
43809;SDS011;29440;48.208;11.162;2024-02-21T06:36:58;3.30;;;0.60;;
43809;SDS011;29440;48.208;11.162;2024-02-21T06:39:23;1.02;;;0.50;;
43809;SDS011;29440;48.208;11.162;2024-02-21T06:41:49;2.63;;;0.60;;
43809;SDS011;29440;48.208;11.162;2024-02-21T06:44:16;1.80;;;0.50;;
43809;SDS011;29440;48.208;11.162;2024-02-21T06:46:42;1.55;;;0.63;;
43809;SDS011;29440;48.208;11.162;2024-02-21T06:49:07;1.98;;;0.80;;
43809;SDS011;29440;48.208;11.162;2024-02-21T06:51:33;2.15;;;0.68;;
43809;SDS011;29440;48.208;11.162;2024-02-21T06:53:59;1.20;;;0.65;;
43809;SDS011;29440;48.208;11.162;2024-02-21T06:56:25;1.52;;;0.70;;
43809;SDS011;29440;48.208;11.162;2024-02-21T06:58:53;1.45;;;0.70;;
43809;SDS011;29440;48.208;11.162;2024-02-21T07:01:22;1.05;;;0.50;;
43809;SDS011;29440;48.208;11.162;2024-02-21T07:03:48;1.42;;;0.60;;
43809;SDS011;29440;48.208;11.162;2024-02-21T07:06:14;1.15;;;0.60;;
43809;SDS011;29440;48.208;11.162;2024-02-21T07:08:39;0.95;;;0.40;;
43809;SDS011;29440;48.208;11.162;2024-02-21T07:11:05;1.85;;;0.30;;
43809;SDS011;29440;48.208;11.162;2024-02-21T07:13:32;0.82;;;0.40;;
43809;SDS011;29440;48.208;11.162;2024-02-21T07:15:57;0.50;;;0.40;;
43809;SDS011;29440;48.208;11.162;2024-02-21T07:18:23;1.02;;;0.50;;
43809;SDS011;29440;48.208;11.162;2024-02-21T07:20:50;2.72;;;0.43;;
43809;SDS011;29440;48.208;11.162;2024-02-21T07:23:16;1.35;;;0.40;;
43809;SDS011;29440;48.208;11.162;2024-02-21T07:25:42;1.45;;;0.60;;
43809;SDS011;29440;48.208;11.162;2024-02-21T07:28:11;0.73;;;0.40;;
43809;SDS011;29440;48.208;11.162;2024-02-21T07:30:38;1.92;;;0.47;;
43809;SDS011;29440;48.208;11.162;2024-02-21T07:33:03;1.20;;;0.50;;
43809;SDS011;29440;48.208;11.162;2024-02-21T07:35:29;0.98;;;0.30;;
43809;SDS011;29440;48.208;11.162;2024-02-21T07:37:54;0.45;;;0.40;;
43809;SDS011;29440;48.208;11.162;2024-02-21T07:40:20;2.88;;;0.60;;
43809;SDS011;29440;48.208;11.162;2024-02-21T07:42:45;2.22;;;0.45;;
43809;SDS011;29440;48.208;11.162;2024-02-21T07:45:11;0.60;;;0.40;;
43809;SDS011;29440;48.208;11.162;2024-02-21T07:47:37;0.95;;;0.40;;
43809;SDS011;29440;48.208;11.162;2024-02-21T07:50:03;1.58;;;0.40;;
43809;SDS011;29440;48.208;11.162;2024-02-21T07:52:29;0.88;;;0.30;;
43809;SDS011;29440;48.208;11.162;2024-02-21T07:54:54;2.22;;;0.40;;
43809;SDS011;29440;48.208;11.162;2024-02-21T07:57:20;1.35;;;0.40;;
43809;SDS011;29440;48.208;11.162;2024-02-21T07:59:46;0.80;;;0.40;;
43809;SDS011;29440;48.208;11.162;2024-02-21T08:02:15;0.38;;;0.30;;
43809;SDS011;29440;48.208;11.162;2024-02-21T08:04:41;1.15;;;0.30;;
43809;SDS011;29440;48.208;11.162;2024-02-21T08:07:07;0.68;;;0.40;;
43809;SDS011;29440;48.208;11.162;2024-02-21T08:09:33;1.48;;;0.60;;
43809;SDS011;29440;48.208;11.162;2024-02-21T08:11:58;1.90;;;0.40;;
43809;SDS011;29440;48.208;11.162;2024-02-21T08:14:24;1.77;;;0.30;;
43809;SDS011;29440;48.208;11.162;2024-02-21T08:16:53;0.80;;;0.32;;
43809;SDS011;29440;48.208;11.162;2024-02-21T08:19:20;0.70;;;0.40;;
43809;SDS011;29440;48.208;11.162;2024-02-21T08:21:45;0.70;;;0.30;;
43809;SDS011;29440;48.208;11.162;2024-02-21T08:24:14;1.42;;;0.40;;
43809;SDS011;29440;48.208;11.162;2024-02-21T08:26:43;1.40;;;0.38;;
43809;SDS011;29440;48.208;11.162;2024-02-21T08:29:10;1.67;;;0.43;;
43809;SDS011;29440;48.208;11.162;2024-02-21T08:31:36;36.47;;;1.88;;
43809;SDS011;29440;48.208;11.162;2024-02-21T08:34:02;1.13;;;0.30;;
43809;SDS011;29440;48.208;11.162;2024-02-21T08:36:32;0.75;;;0.30;;
43809;SDS011;29440;48.208;11.162;2024-02-21T08:38:59;0.55;;;0.47;;
43809;SDS011;29440;48.208;11.162;2024-02-21T08:41:25;0.65;;;0.30;;
43809;SDS011;29440;48.208;11.162;2024-02-21T08:43:52;0.40;;;0.30;;
43809;SDS011;29440;48.208;11.162;2024-02-21T08:46:18;0.52;;;0.32;;
43809;SDS011;29440;48.208;11.162;2024-02-21T08:48:49;3.80;;;0.40;;
43809;SDS011;29440;48.208;11.162;2024-02-21T08:51:16;0.73;;;0.30;;
43809;SDS011;29440;48.208;11.162;2024-02-21T08:53:41;1.23;;;0.25;;
43809;SDS011;29440;48.208;11.162;2024-02-21T08:56:07;0.80;;;0.30;;
43809;SDS011;29440;48.208;11.162;2024-02-21T08:58:33;0.85;;;0.28;;
43809;SDS011;29440;48.208;11.162;2024-02-21T09:01:00;1.75;;;0.40;;
43809;SDS011;29440;48.208;11.162;2024-02-21T09:03:25;0.60;;;0.20;;
43809;SDS011;29440;48.208;11.162;2024-02-21T09:05:51;0.63;;;0.35;;
43809;SDS011;29440;48.208;11.162;2024-02-21T09:08:17;2.08;;;0.38;;
43809;SDS011;29440;48.208;11.162;2024-02-21T09:10:43;0.98;;;0.30;;
43809;SDS011;29440;48.208;11.162;2024-02-21T09:13:09;0.30;;;0.20;;
43809;SDS011;29440;48.208;11.162;2024-02-21T09:15:34;0.77;;;0.30;;
43809;SDS011;29440;48.208;11.162;2024-02-21T09:18:00;1.60;;;0.55;;
43809;SDS011;29440;48.208;11.162;2024-02-21T09:20:25;0.65;;;0.30;;
43809;SDS011;29440;48.208;11.162;2024-02-21T09:22:51;1.55;;;0.40;;
43809;SDS011;29440;48.208;11.162;2024-02-21T09:25:17;1.85;;;0.40;;
43809;SDS011;29440;48.208;11.162;2024-02-21T09:27:43;1.05;;;0.40;;
43809;SDS011;29440;48.208;11.162;2024-02-21T09:30:09;1.95;;;0.50;;
43809;SDS011;29440;48.208;11.162;2024-02-21T09:32:35;0.68;;;0.32;;
43809;SDS011;29440;48.208;11.162;2024-02-21T09:35:01;2.85;;;0.50;;
43809;SDS011;29440;48.208;11.162;2024-02-21T09:37:27;1.75;;;0.30;;
43809;SDS011;29440;48.208;11.162;2024-02-21T09:39:52;0.80;;;0.30;;
43809;SDS011;29440;48.208;11.162;2024-02-21T09:42:21;0.77;;;0.30;;
43809;SDS011;29440;48.208;11.162;2024-02-21T09:44:50;2.38;;;0.22;;
43809;SDS011;29440;48.208;11.162;2024-02-21T09:47:22;2.42;;;0.30;;
43809;SDS011;29440;48.208;11.162;2024-02-21T09:49:53;0.73;;;0.30;;
43809;SDS011;29440;48.208;11.162;2024-02-21T09:52:19;1.15;;;0.32;;
43809;SDS011;29440;48.208;11.162;2024-02-21T09:54:46;0.50;;;0.35;;
43809;SDS011;29440;48.208;11.162;2024-02-21T09:57:13;0.60;;;0.22;;
43809;SDS011;29440;48.208;11.162;2024-02-21T09:59:40;0.88;;;0.30;;
43809;SDS011;29440;48.208;11.162;2024-02-21T10:02:08;0.73;;;0.20;;
43809;SDS011;29440;48.208;11.162;2024-02-21T10:04:34;1.02;;;0.40;;
43809;SDS011;29440;48.208;11.162;2024-02-21T10:07:00;2.00;;;0.30;;
43809;SDS011;29440;48.208;11.162;2024-02-21T10:09:26;0.50;;;0.28;;
43809;SDS011;29440;48.208;11.162;2024-02-21T10:11:53;1.48;;;0.95;;
43809;SDS011;29440;48.208;11.162;2024-02-21T10:14:19;1.38;;;0.32;;
43809;SDS011;29440;48.208;11.162;2024-02-21T10:16:48;1.73;;;0.30;;
43809;SDS011;29440;48.208;11.162;2024-02-21T10:19:21;1.95;;;0.43;;
43809;SDS011;29440;48.208;11.162;2024-02-21T10:24:28;2.58;;;0.40;;
43809;SDS011;29440;48.208;11.162;2024-02-21T10:27:01;0.68;;;0.30;;
43809;SDS011;29440;48.208;11.162;2024-02-21T10:29:28;0.90;;;0.27;;
43809;SDS011;29440;48.208;11.162;2024-02-21T10:32:31;1.88;;;0.50;;
43809;SDS011;29440;48.208;11.162;2024-02-21T10:35:00;0.50;;;0.30;;
43809;SDS011;29440;48.208;11.162;2024-02-21T10:37:27;2.75;;;0.30;;
43809;SDS011;29440;48.208;11.162;2024-02-21T10:39:53;0.40;;;0.30;;
43809;SDS011;29440;48.208;11.162;2024-02-21T10:42:21;3.63;;;0.40;;
43809;SDS011;29440;48.208;11.162;2024-02-21T10:44:46;1.35;;;0.30;;
43809;SDS011;29440;48.208;11.162;2024-02-21T10:47:18;1.30;;;0.40;;
43809;SDS011;29440;48.208;11.162;2024-02-21T10:49:49;0.50;;;0.20;;
43809;SDS011;29440;48.208;11.162;2024-02-21T10:52:29;0.25;;;0.20;;
43809;SDS011;29440;48.208;11.162;2024-02-21T10:55:10;0.20;;;0.20;;
43809;SDS011;29440;48.208;11.162;2024-02-21T10:57:44;2.55;;;0.25;;
43809;SDS011;29440;48.208;11.162;2024-02-21T11:00:11;2.78;;;0.20;;
43809;SDS011;29440;48.208;11.162;2024-02-21T11:02:41;1.25;;;0.20;;
43809;SDS011;29440;48.208;11.162;2024-02-21T11:05:07;0.52;;;0.30;;
43809;SDS011;29440;48.208;11.162;2024-02-21T11:07:35;0.85;;;0.20;;
43809;SDS011;29440;48.208;11.162;2024-02-21T11:10:02;0.88;;;0.30;;
43809;SDS011;29440;48.208;11.162;2024-02-21T11:12:28;0.47;;;0.30;;
43809;SDS011;29440;48.208;11.162;2024-02-21T11:15:07;0.68;;;0.30;;
43809;SDS011;29440;48.208;11.162;2024-02-21T11:17:33;0.30;;;0.20;;
43809;SDS011;29440;48.208;11.162;2024-02-21T11:19:58;0.85;;;0.30;;
43809;SDS011;29440;48.208;11.162;2024-02-21T11:22:26;0.47;;;0.30;;
43809;SDS011;29440;48.208;11.162;2024-02-21T11:25:05;2.00;;;1.25;;
43809;SDS011;29440;48.208;11.162;2024-02-21T11:27:33;0.50;;;0.28;;
43809;SDS011;29440;48.208;11.162;2024-02-21T11:29:59;1.85;;;0.40;;
43809;SDS011;29440;48.208;11.162;2024-02-21T11:32:25;1.23;;;0.30;;
43809;SDS011;29440;48.208;11.162;2024-02-21T11:34:53;1.20;;;0.20;;
43809;SDS011;29440;48.208;11.162;2024-02-21T11:37:32;0.95;;;0.20;;
43809;SDS011;29440;48.208;11.162;2024-02-21T11:39:59;0.35;;;0.30;;
43809;SDS011;29440;48.208;11.162;2024-02-21T11:42:25;1.05;;;0.40;;
43809;SDS011;29440;48.208;11.162;2024-02-21T11:44:52;0.82;;;0.25;;
43809;SDS011;29440;48.208;11.162;2024-02-21T11:47:18;0.30;;;0.20;;
43809;SDS011;29440;48.208;11.162;2024-02-21T11:49:47;0.30;;;0.20;;
43809;SDS011;29440;48.208;11.162;2024-02-21T11:52:15;1.25;;;0.30;;
43809;SDS011;29440;48.208;11.162;2024-02-21T11:54:41;1.48;;;0.20;;
43809;SDS011;29440;48.208;11.162;2024-02-21T11:57:07;0.20;;;0.20;;
43809;SDS011;29440;48.208;11.162;2024-02-21T11:59:34;0.30;;;0.20;;
43809;SDS011;29440;48.208;11.162;2024-02-21T12:02:00;0.20;;;0.20;;
43809;SDS011;29440;48.208;11.162;2024-02-21T12:04:26;0.30;;;0.25;;
43809;SDS011;29440;48.208;11.162;2024-02-21T12:06:55;1.10;;;0.40;;
43809;SDS011;29440;48.208;11.162;2024-02-21T12:09:22;1.95;;;0.30;;
43809;SDS011;29440;48.208;11.162;2024-02-21T12:11:56;0.63;;;0.30;;
43809;SDS011;29440;48.208;11.162;2024-02-21T12:14:28;0.20;;;0.10;;
43809;SDS011;29440;48.208;11.162;2024-02-21T12:16:55;1.00;;;0.22;;
43809;SDS011;29440;48.208;11.162;2024-02-21T12:19:20;3.55;;;0.20;;
43809;SDS011;29440;48.208;11.162;2024-02-21T12:21:47;0.20;;;0.20;;
43809;SDS011;29440;48.208;11.162;2024-02-21T12:24:15;0.40;;;0.20;;
43809;SDS011;29440;48.208;11.162;2024-02-21T12:26:45;0.95;;;0.30;;
43809;SDS011;29440;48.208;11.162;2024-02-21T12:29:11;0.30;;;0.20;;
43809;SDS011;29440;48.208;11.162;2024-02-21T12:31:40;0.65;;;0.30;;
43809;SDS011;29440;48.208;11.162;2024-02-21T12:34:06;0.28;;;0.25;;
43809;SDS011;29440;48.208;11.162;2024-02-21T12:36:32;1.02;;;0.30;;
43809;SDS011;29440;48.208;11.162;2024-02-21T12:38:58;2.22;;;0.47;;
43809;SDS011;29440;48.208;11.162;2024-02-21T12:41:28;1.98;;;0.30;;
43809;SDS011;29440;48.208;11.162;2024-02-21T12:43:55;0.57;;;0.30;;
43809;SDS011;29440;48.208;11.162;2024-02-21T12:46:21;0.85;;;0.20;;
43809;SDS011;29440;48.208;11.162;2024-02-21T12:48:47;0.20;;;0.20;;
43809;SDS011;29440;48.208;11.162;2024-02-21T12:51:12;0.40;;;0.20;;
43809;SDS011;29440;48.208;11.162;2024-02-21T12:53:38;0.30;;;0.10;;
43809;SDS011;29440;48.208;11.162;2024-02-21T12:56:04;0.43;;;0.20;;
43809;SDS011;29440;48.208;11.162;2024-02-21T12:58:32;0.50;;;0.30;;
43809;SDS011;29440;48.208;11.162;2024-02-21T13:00:58;0.40;;;0.22;;
43809;SDS011;29440;48.208;11.162;2024-02-21T13:03:23;0.50;;;0.22;;
43809;SDS011;29440;48.208;11.162;2024-02-21T13:05:49;0.30;;;0.20;;
43809;SDS011;29440;48.208;11.162;2024-02-21T13:08:14;0.15;;;0.15;;
43809;SDS011;29440;48.208;11.162;2024-02-21T13:10:40;0.32;;;0.20;;
43809;SDS011;29440;48.208;11.162;2024-02-21T13:13:05;0.75;;;0.20;;
43809;SDS011;29440;48.208;11.162;2024-02-21T13:15:31;0.45;;;0.20;;
43809;SDS011;29440;48.208;11.162;2024-02-21T13:17:57;0.30;;;0.20;;
43809;SDS011;29440;48.208;11.162;2024-02-21T13:20:23;1.70;;;0.30;;
43809;SDS011;29440;48.208;11.162;2024-02-21T13:22:50;0.50;;;0.20;;
43809;SDS011;29440;48.208;11.162;2024-02-21T13:25:16;0.38;;;0.20;;
43809;SDS011;29440;48.208;11.162;2024-02-21T13:27:43;0.63;;;0.20;;
43809;SDS011;29440;48.208;11.162;2024-02-21T13:30:09;1.65;;;0.30;;
43809;SDS011;29440;48.208;11.162;2024-02-21T13:32:35;0.55;;;0.20;;
43809;SDS011;29440;48.208;11.162;2024-02-21T13:35:01;1.65;;;0.43;;
43809;SDS011;29440;48.208;11.162;2024-02-21T13:37:28;0.50;;;0.30;;
43809;SDS011;29440;48.208;11.162;2024-02-21T13:39:53;1.05;;;0.40;;
43809;SDS011;29440;48.208;11.162;2024-02-21T13:42:19;0.88;;;0.30;;
43809;SDS011;29440;48.208;11.162;2024-02-21T13:44:45;1.35;;;0.20;;
43809;SDS011;29440;48.208;11.162;2024-02-21T13:47:14;0.85;;;0.20;;
43809;SDS011;29440;48.208;11.162;2024-02-21T13:49:40;0.57;;;0.20;;
43809;SDS011;29440;48.208;11.162;2024-02-21T13:52:06;0.73;;;0.60;;
43809;SDS011;29440;48.208;11.162;2024-02-21T13:54:31;0.70;;;0.30;;
43809;SDS011;29440;48.208;11.162;2024-02-21T13:56:57;1.48;;;0.30;;
43809;SDS011;29440;48.208;11.162;2024-02-21T13:59:23;1.00;;;0.30;;
43809;SDS011;29440;48.208;11.162;2024-02-21T14:01:48;1.75;;;0.30;;
43809;SDS011;29440;48.208;11.162;2024-02-21T14:04:14;1.58;;;0.30;;
43809;SDS011;29440;48.208;11.162;2024-02-21T14:06:39;1.58;;;0.20;;
43809;SDS011;29440;48.208;11.162;2024-02-21T14:09:11;2.13;;;0.20;;
43809;SDS011;29440;48.208;11.162;2024-02-21T14:11:37;0.50;;;0.20;;
43809;SDS011;29440;48.208;11.162;2024-02-21T14:14:04;0.40;;;0.20;;
43809;SDS011;29440;48.208;11.162;2024-02-21T14:16:30;0.43;;;0.20;;
43809;SDS011;29440;48.208;11.162;2024-02-21T14:18:56;0.20;;;0.20;;
43809;SDS011;29440;48.208;11.162;2024-02-21T14:21:21;0.30;;;0.20;;
43809;SDS011;29440;48.208;11.162;2024-02-21T14:23:47;1.27;;;0.20;;
43809;SDS011;29440;48.208;11.162;2024-02-21T14:26:13;0.10;;;0.10;;
43809;SDS011;29440;48.208;11.162;2024-02-21T14:28:39;0.20;;;0.20;;
43809;SDS011;29440;48.208;11.162;2024-02-21T14:31:05;0.40;;;0.20;;
43809;SDS011;29440;48.208;11.162;2024-02-21T14:33:34;0.20;;;0.20;;